createdAt,value
2018-08-11T00:01:39.972Z,17.80
2018-08-11T00:04:09.593Z,17.80
2018-08-11T00:06:39.001Z,17.80
2018-08-11T00:09:09.994Z,17.80
2018-08-11T00:11:39.694Z,17.80
2018-08-11T00:14:09.128Z,17.80
2018-08-11T00:16:38.556Z,17.70
2018-08-11T00:19:08.240Z,17.70
2018-08-11T00:21:37.696Z,17.70
2018-08-11T00:24:07.172Z,17.60
2018-08-11T00:26:36.627Z,17.60
2018-08-11T00:29:06.026Z,17.60
2018-08-11T00:31:35.754Z,17.60
2018-08-11T00:34:05.464Z,17.60
2018-08-11T00:36:36.023Z,17.60
2018-08-11T00:39:08.900Z,17.60
2018-08-11T00:41:38.416Z,17.60
2018-08-11T00:44:08.500Z,17.60
2018-08-11T00:46:38.058Z,17.50
2018-08-11T00:49:07.532Z,17.50
2018-08-11T00:51:37.006Z,17.50
2018-08-11T00:54:06.548Z,17.50
2018-08-11T00:56:35.882Z,17.50
2018-08-11T00:59:05.264Z,17.50
2018-08-11T01:01:35.216Z,17.50
2018-08-11T01:04:04.700Z,17.50
2018-08-11T01:06:34.302Z,17.40
2018-08-11T01:09:04.160Z,17.50
2018-08-11T01:11:33.520Z,17.30
2018-08-11T01:14:02.916Z,17.30
2018-08-11T01:16:32.676Z,17.30
2018-08-11T01:19:02.119Z,17.40
2018-08-11T01:21:31.438Z,17.40
2018-08-11T01:24:01.199Z,17.30
2018-08-11T01:26:30.578Z,17.30
2018-08-11T01:28:59.953Z,17.20
2018-08-11T01:31:29.655Z,17.20
2018-08-11T01:33:59.128Z,17.20
2018-08-11T01:36:28.519Z,17.20
2018-08-11T01:38:58.078Z,17.20
2018-08-11T01:41:27.881Z,17.20
2018-08-11T01:43:57.226Z,17.20
2018-08-11T01:46:26.832Z,17.10
2018-08-11T01:48:56.288Z,17.20
2018-08-11T01:51:25.713Z,17.10
2018-08-11T01:53:55.211Z,17.10
2018-08-11T01:56:24.493Z,17.10
2018-08-11T01:58:53.992Z,17.10
2018-08-11T02:01:23.611Z,17.10
2018-08-11T02:03:52.979Z,17.10
2018-08-11T02:06:22.429Z,17.00
2018-08-11T02:08:52.030Z,17.00
2018-08-11T02:11:21.451Z,17.00
2018-08-11T02:13:51.045Z,16.90
2018-08-11T02:16:20.493Z,17.00
2018-08-11T02:18:49.938Z,16.90
2018-08-11T02:21:19.409Z,16.90
2018-08-11T02:23:49.110Z,16.90
2018-08-11T02:26:18.555Z,16.90
2018-08-11T02:28:48.107Z,16.90
2018-08-11T02:31:17.706Z,16.90
2018-08-11T02:33:47.073Z,16.90
2018-08-11T02:36:16.632Z,16.80
2018-08-11T02:38:46.532Z,16.80
2018-08-11T02:41:16.260Z,16.80
2018-08-11T02:43:46.270Z,16.80
2018-08-11T02:46:16.136Z,16.80
2018-08-11T02:48:45.691Z,16.80
2018-08-11T02:51:15.228Z,16.80
2018-08-11T02:53:45.241Z,16.80
2018-08-11T02:56:14.882Z,16.80
2018-08-11T02:58:44.537Z,16.80
2018-08-11T03:01:14.607Z,16.80
2018-08-11T03:03:44.144Z,16.80
2018-08-11T03:06:13.739Z,16.80
2018-08-11T03:08:43.625Z,16.80
2018-08-11T03:11:13.257Z,16.80
2018-08-11T03:14:26.575Z,16.80
2018-08-11T03:16:56.509Z,16.80
2018-08-11T03:19:26.132Z,16.80
2018-08-11T03:21:55.799Z,16.80
2018-08-11T03:24:25.256Z,16.70
2018-08-11T03:26:54.712Z,16.70
2018-08-11T03:29:24.470Z,16.70
2018-08-11T03:31:53.851Z,16.70
2018-08-11T03:34:23.197Z,16.70
2018-08-11T03:36:52.798Z,16.70
2018-08-11T03:39:22.249Z,16.70
2018-08-11T03:41:51.631Z,16.70
2018-08-11T03:44:21.687Z,16.60
2018-08-11T03:46:51.098Z,16.60
2018-08-11T03:49:20.579Z,16.60
2018-08-11T03:51:50.437Z,16.60
2018-08-11T03:54:19.781Z,16.60
2018-08-11T03:56:49.207Z,16.50
2018-08-11T03:59:18.802Z,16.50
2018-08-11T04:01:48.154Z,16.50
2018-08-11T04:04:17.518Z,16.50
2018-08-11T04:06:52.511Z,16.50
2018-08-11T04:09:37.774Z,16.50
2018-08-11T04:12:15.027Z,16.50
2018-08-11T04:15:00.355Z,16.50
2018-08-11T04:17:46.567Z,16.50
2018-08-11T04:20:26.118Z,16.50
2018-08-11T04:23:07.483Z,16.50
2018-08-11T04:25:50.411Z,16.60
2018-08-11T04:28:31.845Z,16.60
2018-08-11T04:31:16.086Z,16.60
2018-08-11T04:33:49.689Z,16.60
2018-08-11T04:36:26.884Z,16.60
2018-08-11T04:38:56.670Z,16.60
2018-08-11T04:41:26.059Z,16.60
2018-08-11T04:43:55.601Z,16.60
2018-08-11T04:46:25.804Z,16.60
2018-08-11T04:48:55.431Z,16.60
2018-08-11T04:51:24.752Z,16.60
2018-08-11T04:53:54.598Z,16.60
2018-08-11T04:56:24.191Z,16.70
2018-08-11T04:58:53.601Z,16.70
2018-08-11T05:01:23.381Z,16.70
2018-08-11T05:03:52.980Z,16.70
2018-08-11T05:06:22.472Z,16.70
2018-08-11T05:08:52.042Z,16.70
2018-08-11T05:11:21.411Z,16.80
2018-08-11T05:13:50.842Z,16.80
2018-08-11T05:16:22.093Z,16.80
2018-08-11T05:18:51.604Z,16.80
2018-08-11T05:21:20.977Z,16.80
2018-08-11T05:23:50.659Z,16.90
2018-08-11T05:26:20.126Z,16.80
2018-08-11T05:28:49.565Z,16.80
2018-08-11T05:31:19.458Z,16.80
2018-08-11T05:33:48.778Z,16.90
2018-08-11T05:36:18.138Z,16.80
2018-08-11T05:38:47.771Z,16.90
2018-08-11T05:41:17.248Z,16.90
2018-08-11T05:43:47.183Z,16.90
2018-08-11T05:46:16.862Z,16.90
2018-08-11T05:48:46.730Z,17.00
2018-08-11T05:51:16.532Z,17.00
2018-08-11T05:53:46.546Z,17.00
2018-08-11T05:56:16.142Z,17.00
2018-08-11T05:58:45.729Z,17.00
2018-08-11T06:01:16.639Z,17.00
2018-08-11T06:03:46.294Z,17.10
2018-08-11T06:06:15.881Z,17.10
2018-08-11T06:08:45.874Z,17.10
2018-08-11T06:11:15.646Z,17.10
2018-08-11T06:13:45.337Z,17.10
2018-08-11T06:16:15.218Z,17.10
2018-08-11T06:18:44.991Z,17.10
2018-08-11T06:21:14.754Z,17.10
2018-08-11T06:23:44.639Z,17.20
2018-08-11T06:26:14.156Z,17.20
2018-08-11T06:28:43.803Z,17.20
2018-08-11T06:31:13.718Z,17.20
2018-08-11T06:33:43.593Z,17.30
2018-08-11T06:36:13.268Z,17.30
2018-08-11T06:38:43.325Z,17.30
2018-08-11T06:41:12.899Z,17.30
2018-08-11T06:43:42.362Z,17.30
2018-08-11T06:46:11.816Z,17.40
2018-08-11T06:48:41.165Z,17.30
2018-08-11T06:51:10.749Z,17.30
2018-08-11T06:53:40.452Z,17.40
2018-08-11T06:56:10.262Z,17.40
2018-08-11T06:58:39.711Z,17.40
2018-08-11T07:01:09.408Z,17.50
2018-08-11T07:03:40.510Z,17.50
2018-08-11T07:06:10.026Z,17.50
2018-08-11T07:08:39.571Z,17.60
2018-08-11T07:11:09.255Z,17.60
2018-08-11T07:13:38.596Z,17.60
2018-08-11T07:16:08.044Z,17.60
2018-08-11T07:18:39.314Z,17.60
2018-08-11T07:21:08.722Z,17.60
2018-08-11T07:23:38.439Z,17.70
2018-08-11T07:26:07.998Z,17.70
2018-08-11T07:28:37.289Z,17.70
2018-08-11T07:31:07.255Z,17.70
2018-08-11T07:33:36.565Z,17.70
2018-08-11T07:36:06.156Z,17.70
2018-08-11T07:38:35.884Z,17.80
2018-08-11T07:41:05.361Z,17.80
2018-08-11T07:43:34.771Z,17.80
2018-08-11T07:46:05.265Z,17.80
2018-08-11T07:48:34.871Z,17.80
2018-08-11T07:51:04.378Z,17.80
2018-08-11T07:53:34.296Z,17.80
2018-08-11T07:56:03.748Z,17.90
2018-08-11T07:58:36.624Z,17.90
2018-08-11T08:01:06.029Z,17.90
2018-08-11T08:03:35.405Z,18.00
2018-08-11T08:06:04.991Z,18.00
2018-08-11T08:08:34.800Z,18.00
2018-08-11T08:11:04.386Z,18.00
2018-08-11T08:13:34.015Z,18.10
2018-08-11T08:16:03.428Z,18.10
2018-08-11T08:18:32.992Z,18.10
2018-08-11T08:21:02.751Z,18.10
2018-08-11T08:23:32.240Z,18.20
2018-08-11T08:26:01.786Z,18.20
2018-08-11T08:28:31.247Z,18.20
2018-08-11T08:31:00.641Z,18.20
2018-08-11T08:33:29.983Z,18.20
2018-08-11T08:35:59.709Z,18.20
2018-08-11T08:38:29.118Z,18.20
2018-08-11T08:40:58.482Z,18.20
2018-08-11T08:43:27.820Z,18.30
2018-08-11T08:45:57.071Z,18.30
2018-08-11T08:48:26.419Z,18.30
2018-08-11T08:50:56.231Z,18.30
2018-08-11T08:53:25.695Z,18.30
2018-08-11T08:55:55.104Z,18.30
2018-08-11T08:58:24.766Z,18.40
2018-08-11T09:00:54.163Z,18.40
2018-08-11T09:03:23.497Z,18.40
2018-08-11T09:05:53.196Z,18.40
2018-08-11T09:08:22.744Z,18.50
2018-08-11T09:10:52.198Z,18.50
2018-08-11T09:13:21.675Z,18.50
2018-08-11T09:15:51.134Z,18.60
2018-08-11T09:18:20.815Z,18.70
2018-08-11T09:20:50.354Z,18.70
2018-08-11T09:23:19.716Z,18.80
2018-08-11T09:25:49.208Z,18.90
2018-08-11T09:28:18.624Z,19.00
2018-08-11T09:30:48.148Z,19.00
2018-08-11T09:33:17.713Z,19.00
2018-08-11T09:35:47.872Z,19.00
2018-08-11T09:38:17.425Z,19.00
2018-08-11T09:40:47.394Z,19.10
2018-08-11T09:43:17.134Z,19.20
2018-08-11T09:45:47.055Z,19.20
2018-08-11T09:48:16.708Z,19.30
2018-08-11T09:50:46.756Z,19.30
2018-08-11T09:53:16.382Z,19.40
2018-08-11T09:55:46.142Z,19.50
2018-08-11T09:58:16.036Z,19.50
2018-08-11T10:00:50.287Z,19.60
2018-08-11T10:03:20.169Z,19.60
2018-08-11T10:05:49.524Z,19.70
2018-08-11T10:08:18.942Z,19.80
2018-08-11T10:10:48.556Z,19.90
2018-08-11T10:13:18.428Z,19.90
2018-08-11T10:15:47.819Z,19.80
2018-08-11T10:18:17.972Z,19.90
2018-08-11T10:20:47.686Z,20.00
2018-08-11T10:23:17.410Z,20.10
2018-08-11T10:25:47.408Z,20.20
2018-08-11T10:28:17.028Z,20.40
2018-08-11T10:30:48.355Z,20.50
2018-08-11T10:33:18.319Z,20.60
2018-08-11T10:35:47.735Z,20.70
2018-08-11T10:38:17.449Z,20.80
2018-08-11T10:40:47.170Z,20.90
2018-08-11T10:43:17.023Z,21.00
2018-08-11T10:45:48.415Z,21.10
2018-08-11T10:48:18.037Z,21.20
2018-08-11T10:50:47.500Z,21.30
2018-08-11T10:53:17.144Z,21.30
2018-08-11T10:55:47.171Z,21.30
2018-08-11T10:58:16.919Z,21.30
2018-08-11T11:00:46.918Z,21.40
2018-08-11T11:03:17.076Z,21.50
2018-08-11T11:05:47.116Z,21.60
2018-08-11T11:08:18.376Z,21.70
2018-08-11T11:10:47.962Z,21.80
2018-08-11T11:13:17.680Z,21.90
2018-08-11T11:15:47.449Z,22.00
2018-08-11T11:18:17.085Z,22.10
2018-08-11T11:20:46.855Z,22.20
2018-08-11T11:23:16.924Z,22.30
2018-08-11T11:25:46.880Z,22.40
2018-08-11T11:28:16.682Z,22.40
2018-08-11T11:30:46.964Z,22.40
2018-08-11T11:33:16.834Z,22.50
2018-08-11T11:35:46.775Z,22.60
2018-08-11T11:38:16.565Z,22.70
2018-08-11T11:40:47.164Z,22.80
2018-08-11T11:43:17.692Z,22.90
2018-08-11T11:45:47.573Z,23.00
2018-08-11T11:48:17.557Z,23.00
2018-08-11T11:50:48.135Z,23.10
2018-08-11T11:53:17.749Z,23.20
2018-08-11T11:55:47.772Z,23.30
2018-08-11T11:58:17.561Z,23.40
2018-08-11T12:00:47.427Z,23.40
2018-08-11T12:03:18.951Z,23.50
2018-08-11T12:05:48.372Z,23.60
2018-08-11T12:08:17.871Z,23.60
2018-08-11T12:10:47.719Z,23.70
2018-08-11T12:13:17.515Z,23.80
2018-08-11T12:15:47.323Z,23.80
2018-08-11T12:18:17.325Z,23.90
2018-08-11T12:20:47.065Z,23.90
2018-08-11T12:23:16.920Z,24.00
2018-08-11T12:25:46.726Z,24.00
2018-08-11T12:28:16.384Z,24.10
2018-08-11T12:30:46.040Z,24.10
2018-08-11T12:33:16.125Z,24.20
2018-08-11T12:35:45.886Z,24.20
2018-08-11T12:38:15.630Z,24.30
2018-08-11T12:40:45.600Z,24.30
2018-08-11T12:43:15.184Z,24.30
2018-08-11T12:45:44.728Z,24.30
2018-08-11T12:48:14.795Z,24.30
2018-08-11T12:50:44.600Z,24.40
2018-08-11T12:53:14.299Z,24.40
2018-08-11T12:55:44.263Z,24.40
2018-08-11T12:58:13.784Z,24.40
2018-08-11T13:00:43.234Z,24.40
2018-08-11T13:03:12.667Z,24.30
2018-08-11T13:05:42.492Z,24.30
2018-08-11T13:08:12.032Z,24.40
2018-08-11T13:10:41.794Z,24.50
2018-08-11T13:13:11.160Z,24.50
2018-08-11T13:15:40.698Z,24.50
2018-08-11T13:18:10.218Z,24.50
2018-08-11T13:20:39.775Z,24.50
2018-08-11T13:23:09.226Z,24.50
2018-08-11T13:25:38.836Z,24.40
2018-08-11T13:28:08.177Z,24.30
2018-08-11T13:30:38.371Z,24.20
2018-08-11T13:33:08.074Z,24.10
2018-08-11T13:35:37.569Z,23.90
2018-08-11T13:38:07.066Z,23.90
2018-08-11T13:40:36.752Z,23.80
2018-08-11T13:43:06.880Z,23.70
2018-08-11T13:45:37.300Z,23.50
2018-08-11T13:48:07.037Z,23.50
2018-08-11T13:50:36.709Z,23.40
2018-08-11T13:53:06.355Z,23.30
2018-08-11T13:55:36.019Z,23.20
2018-08-11T13:58:05.787Z,23.20
2018-08-11T14:00:35.472Z,23.10
2018-08-11T14:03:05.111Z,23.10
2018-08-11T14:05:34.581Z,23.00
2018-08-11T14:08:16.584Z,22.90
2018-08-11T14:10:46.503Z,22.80
2018-08-11T14:13:16.443Z,22.80
2018-08-11T14:15:46.019Z,22.70
2018-08-11T14:18:15.693Z,22.50
2018-08-11T14:20:45.553Z,22.50
2018-08-11T14:23:15.109Z,22.40
2018-08-11T14:25:44.677Z,22.40
2018-08-11T14:28:14.429Z,22.30
2018-08-11T14:30:43.831Z,22.20
2018-08-11T14:33:13.352Z,22.10
2018-08-11T14:35:43.257Z,22.10
2018-08-11T14:38:13.116Z,22.10
2018-08-11T14:40:42.519Z,22.00
2018-08-11T14:43:12.210Z,22.00
2018-08-11T14:45:41.576Z,22.00
2018-08-11T14:48:10.979Z,21.90
2018-08-11T14:50:40.692Z,21.90
2018-08-11T14:53:10.065Z,21.80
2018-08-11T14:55:39.441Z,21.80
2018-08-11T14:58:09.770Z,21.80
2018-08-11T15:00:39.195Z,21.80
2018-08-11T15:03:08.697Z,21.80
2018-08-11T15:05:38.281Z,21.90
2018-08-11T15:08:07.799Z,21.90
2018-08-11T15:10:37.337Z,22.00
2018-08-11T15:13:07.462Z,22.00
2018-08-11T15:15:36.910Z,22.10
2018-08-11T15:18:06.570Z,22.20
2018-08-11T15:20:36.179Z,22.20
2018-08-11T15:23:05.697Z,22.20
2018-08-11T15:25:35.137Z,22.20
2018-08-11T15:28:05.218Z,22.30
2018-08-11T15:30:34.733Z,22.30
2018-08-11T15:33:04.114Z,22.30
2018-08-11T15:35:33.737Z,22.30
2018-08-11T15:38:03.065Z,22.30
2018-08-11T15:40:32.537Z,22.40
2018-08-11T15:43:02.351Z,22.40
2018-08-11T15:45:31.722Z,22.50
2018-08-11T15:48:00.999Z,22.50
2018-08-11T15:50:30.544Z,22.40
2018-08-11T15:53:00.009Z,22.40
2018-08-11T15:55:29.431Z,22.30
2018-08-11T15:57:59.040Z,22.30
2018-08-11T16:00:28.829Z,22.20
2018-08-11T16:02:58.214Z,22.10
2018-08-11T16:05:27.910Z,22.10
2018-08-11T16:07:57.408Z,22.00
2018-08-11T16:10:27.065Z,21.90
2018-08-11T16:12:56.668Z,21.80
2018-08-11T16:15:26.080Z,21.60
2018-08-11T16:17:55.557Z,21.50
2018-08-11T16:20:27.211Z,21.40
2018-08-11T16:22:56.541Z,21.30
2018-08-11T16:25:25.882Z,21.20
2018-08-11T16:27:55.502Z,21.10
2018-08-11T16:30:25.020Z,21.00
2018-08-11T16:32:54.431Z,20.80
2018-08-11T16:35:24.006Z,20.70
2018-08-11T16:37:55.388Z,20.60
2018-08-11T16:40:24.835Z,20.50
2018-08-11T16:42:54.420Z,20.30
2018-08-11T16:45:24.058Z,20.20
2018-08-11T16:47:53.582Z,20.10
2018-08-11T16:50:22.994Z,20.10
2018-08-11T16:52:52.527Z,20.00
2018-08-11T16:55:21.943Z,20.00
2018-08-11T16:57:51.419Z,19.90
2018-08-11T17:00:20.924Z,19.70
2018-08-11T17:02:50.541Z,19.70
2018-08-11T17:05:19.893Z,19.60
2018-08-11T17:07:49.321Z,19.60
2018-08-11T17:10:19.146Z,19.50
2018-08-11T17:12:48.685Z,19.40
2018-08-11T17:15:18.419Z,19.30
2018-08-11T17:17:47.982Z,19.20
2018-08-11T17:20:17.791Z,19.20
2018-08-11T17:22:47.381Z,19.10
2018-08-11T17:25:17.224Z,19.00
2018-08-11T17:27:47.008Z,19.00
2018-08-11T17:30:17.042Z,18.90
2018-08-11T17:32:46.948Z,18.90
2018-08-11T17:35:17.704Z,18.90
2018-08-11T17:37:48.236Z,18.80
2018-08-11T17:40:17.793Z,18.80
2018-08-11T17:42:47.396Z,18.70
2018-08-11T17:45:17.467Z,18.70
2018-08-11T17:47:47.380Z,18.60
2018-08-11T17:50:17.357Z,18.70
2018-08-11T17:52:47.677Z,18.50
2018-08-11T17:55:17.678Z,18.50
2018-08-11T17:57:47.498Z,18.50
2018-08-11T18:00:17.333Z,18.50
2018-08-11T18:02:47.341Z,18.40
2018-08-11T18:05:17.328Z,18.40
2018-08-11T18:07:50.024Z,18.40
2018-08-11T18:10:20.054Z,18.40
2018-08-11T18:12:49.586Z,18.40
2018-08-11T18:15:19.606Z,18.30
2018-08-11T18:17:49.058Z,18.40
2018-08-11T18:20:18.703Z,18.30
2018-08-11T18:22:48.188Z,18.30
2018-08-11T18:25:17.585Z,18.30
2018-08-11T18:27:47.531Z,18.20
2018-08-11T18:30:17.229Z,18.20
2018-08-11T18:32:46.923Z,18.20
2018-08-11T18:35:17.017Z,18.20
2018-08-11T18:37:46.765Z,18.20
2018-08-11T18:40:16.490Z,18.10
2018-08-11T18:42:46.299Z,18.10
2018-08-11T18:45:15.916Z,18.10
2018-08-11T18:47:45.744Z,18.10
2018-08-11T18:50:15.756Z,18.10
2018-08-11T18:52:45.920Z,18.00
2018-08-11T18:55:15.717Z,18.00
2018-08-11T18:57:45.850Z,17.90
2018-08-11T19:00:17.183Z,17.90
2018-08-11T19:02:47.054Z,17.90
2018-08-11T19:05:16.731Z,17.90
2018-08-11T19:07:46.318Z,17.90
2018-08-11T19:10:16.438Z,17.90
2018-08-11T19:12:46.097Z,17.90
2018-08-11T19:15:15.842Z,17.80
2018-08-11T19:17:46.076Z,17.80
2018-08-11T19:20:16.869Z,17.80
2018-08-11T19:22:46.974Z,17.80
2018-08-11T19:25:16.742Z,17.80
2018-08-11T19:27:46.351Z,17.80
2018-08-11T19:30:16.155Z,17.80
2018-08-11T19:32:46.227Z,17.80
2018-08-11T19:35:15.882Z,17.70
2018-08-11T19:37:45.952Z,17.80
2018-08-11T19:40:15.967Z,17.70
2018-08-11T19:42:45.748Z,17.80
2018-08-11T19:45:15.225Z,17.70
2018-08-11T19:47:45.094Z,17.70
2018-08-11T19:50:14.625Z,17.70
2018-08-11T19:52:44.162Z,17.70
2018-08-11T19:55:14.124Z,17.60
2018-08-11T19:57:43.683Z,17.60
2018-08-11T20:00:14.861Z,17.60
2018-08-11T20:02:44.699Z,17.60
2018-08-11T20:05:14.457Z,17.60
2018-08-11T20:07:44.114Z,17.60
2018-08-11T20:10:13.505Z,17.60
2018-08-11T20:12:43.228Z,17.50
2018-08-11T20:15:12.925Z,17.50
2018-08-11T20:17:42.385Z,17.40
2018-08-11T20:20:11.951Z,17.40
2018-08-11T20:22:41.638Z,17.40
2018-08-11T20:25:11.707Z,17.40
2018-08-11T20:27:41.259Z,17.50
2018-08-11T20:30:12.302Z,17.40
2018-08-11T20:32:42.317Z,17.40
2018-08-11T20:35:11.738Z,17.50
2018-08-11T20:37:41.538Z,17.40
2018-08-11T20:40:11.316Z,17.40
2018-08-11T20:42:40.717Z,17.40
2018-08-11T20:45:10.781Z,17.30
2018-08-11T20:47:40.227Z,17.40
2018-08-11T20:50:10.120Z,17.40
2018-08-11T20:52:39.824Z,17.30
2018-08-11T20:55:09.767Z,17.30
2018-08-11T20:57:39.276Z,17.30
2018-08-11T21:00:12.136Z,17.30
2018-08-11T21:02:41.634Z,17.20
2018-08-11T21:05:13.241Z,17.20
2018-08-11T21:07:44.111Z,17.20
2018-08-11T21:10:15.193Z,17.20
2018-08-11T21:12:45.308Z,17.10
2018-08-11T21:15:14.918Z,17.10
2018-08-11T21:17:44.767Z,17.10
2018-08-11T21:20:15.316Z,17.10
2018-08-11T21:22:45.286Z,17.10
2018-08-11T21:25:15.161Z,17.10
2018-08-11T21:27:45.152Z,17.10
2018-08-11T21:30:15.938Z,17.10
2018-08-11T21:32:45.826Z,17.00
2018-08-11T21:35:15.463Z,17.00
2018-08-11T21:37:45.203Z,17.00
2018-08-11T21:40:16.243Z,17.00
2018-08-11T21:42:45.886Z,17.00
2018-08-11T21:45:16.132Z,17.00
2018-08-11T21:47:48.705Z,17.00
2018-08-11T21:50:18.263Z,17.00
2018-08-11T21:52:48.120Z,17.00
2018-08-11T21:55:17.868Z,17.00
2018-08-11T21:57:47.592Z,17.00
2018-08-11T22:00:32.352Z,17.00
2018-08-11T22:03:01.969Z,17.00
2018-08-11T22:05:31.516Z,17.00
2018-08-11T22:08:02.639Z,17.00
2018-08-11T22:10:32.304Z,17.00
2018-08-11T22:13:02.431Z,16.90
2018-08-11T22:15:32.040Z,16.90
2018-08-11T22:18:01.605Z,16.90
2018-08-11T22:20:31.207Z,16.90
2018-08-11T22:23:01.120Z,16.90
2018-08-11T22:25:30.634Z,16.90
2018-08-11T22:28:00.057Z,16.90
2018-08-11T22:30:29.847Z,16.80
2018-08-11T22:32:59.314Z,16.80
2018-08-11T22:35:28.747Z,16.80
2018-08-11T22:37:58.457Z,16.80
2018-08-11T22:40:27.853Z,16.80
2018-08-11T22:42:57.365Z,16.80
2018-08-11T22:45:26.977Z,16.80
2018-08-11T22:47:56.470Z,16.80
2018-08-11T22:50:26.149Z,16.80
2018-08-11T22:52:55.906Z,16.80
2018-08-11T22:55:25.362Z,16.80
2018-08-11T22:57:54.824Z,16.80
2018-08-11T23:00:24.490Z,16.80
2018-08-11T23:02:54.079Z,16.70
2018-08-11T23:05:23.739Z,16.80
2018-08-11T23:07:53.506Z,16.70
2018-08-11T23:10:22.950Z,16.70
2018-08-11T23:12:52.316Z,16.70
2018-08-11T23:15:22.044Z,16.70
2018-08-11T23:17:51.677Z,16.70
2018-08-11T23:20:21.074Z,16.70
2018-08-11T23:22:51.670Z,16.70
2018-08-11T23:25:21.056Z,16.70
2018-08-11T23:27:50.516Z,16.60
2018-08-11T23:30:20.324Z,16.60
2018-08-11T23:32:49.900Z,16.60
2018-08-11T23:35:19.425Z,16.60
2018-08-11T23:37:49.134Z,16.60
2018-08-11T23:40:18.642Z,16.60
2018-08-11T23:42:48.166Z,16.60
2018-08-11T23:45:18.712Z,16.60
2018-08-11T23:47:48.397Z,16.60
2018-08-11T23:50:18.112Z,16.60
2018-08-11T23:52:47.935Z,16.60
2018-08-11T23:55:17.799Z,16.60
2018-08-11T23:57:47.456Z,16.60
